Time;durP1;ratioP1;P1;durP2;ratioP2;P2;SDS_P1;SDS_P2;PMS_P1;PMS_P2;Temp;Humidity;BMP_temperature;BMP_pressure;BME280_temperature;BME280_humidity;BME280_pressure;Samples;Min_cycle;Max_cycle;Signal;HPM_P1;HPM_P2
2024/04/12 00:01:02;;;;;;;3.92;2.38;;;13.10;64.80;;;;;;5389849;26;20069;-61
2024/04/12 00:03:29;;;;;;;4.07;2.17;;;13.10;65.40;;;;;;5396247;26;20064;-61
2024/04/12 00:05:57;;;;;;;4.18;2.47;;;13.10;65.40;;;;;;5398562;26;20004;-61
2024/04/12 00:08:28;;;;;;;3.83;2.20;;;13.10;65.20;;;;;;5392200;26;20080;-62
2024/04/12 00:10:56;;;;;;;4.45;2.30;;;13.10;66.00;;;;;;5390161;26;19995;-62
2024/04/12 00:13:22;;;;;;;3.92;2.35;;;13.10;66.40;;;;;;5394888;26;20007;-61
2024/04/12 00:15:48;;;;;;;3.03;2.30;;;13.20;66.70;;;;;;5394682;26;20502;-62
2024/04/12 00:18:13;;;;;;;5.07;2.17;;;13.20;67.00;;;;;;5394266;26;20011;-62
2024/04/12 00:20:39;;;;;;;3.28;2.08;;;13.20;67.40;;;;;;5396174;26;20109;-61
2024/04/12 00:23:06;;;;;;;4.43;2.20;;;13.20;67.60;;;;;;5394714;26;20022;-61
2024/04/12 00:25:32;;;;;;;3.13;2.20;;;13.20;67.80;;;;;;5394485;26;20013;-60
2024/04/12 00:27:57;;;;;;;4.32;2.30;;;13.20;67.90;;;;;;5398710;26;19999;-62
2024/04/12 00:30:39;;;;;;;4.43;2.00;;;13.20;68.30;;;;;;5395045;26;20339;-62
2024/04/12 00:33:10;;;;;;;4.35;2.45;;;13.20;68.40;;;;;;5389098;26;20036;-62
2024/04/12 00:35:38;;;;;;;2.15;1.83;;;13.20;69.00;;;;;;5396044;26;20347;-61
2024/04/12 00:38:09;;;;;;;3.78;1.88;;;13.30;69.30;;;;;;5393473;26;19996;-61
2024/04/12 00:40:36;;;;;;;3.42;2.17;;;13.30;69.50;;;;;;5391381;26;19999;-61
2024/04/12 00:43:15;;;;;;;4.15;2.40;;;13.30;69.70;;;;;;5393529;26;20341;-61
2024/04/12 00:45:48;;;;;;;4.72;2.10;;;13.30;70.30;;;;;;5393082;26;20000;-62
2024/04/12 00:48:21;;;;;;;4.43;2.50;;;13.30;70.70;;;;;;5394521;26;20041;-62
2024/04/12 00:50:50;;;;;;;4.88;2.00;;;13.30;71.40;;;;;;5394882;26;20024;-62
2024/04/12 00:53:28;;;;;;;3.83;2.05;;;13.30;71.70;;;;;;5395136;26;20004;-62
2024/04/12 00:56:00;;;;;;;3.65;1.90;;;13.30;72.00;;;;;;5393237;26;20846;-62
2024/04/12 00:58:37;;;;;;;7.43;1.88;;;13.30;72.30;;;;;;5392659;26;19999;-60
2024/04/12 01:01:11;;;;;;;4.53;1.90;;;13.30;72.50;;;;;;5390251;26;20007;-62
2024/04/12 01:03:46;;;;;;;3.97;1.58;;;13.30;73.20;;;;;;5396888;26;20359;-62
2024/04/12 01:06:15;;;;;;;3.25;1.95;;;13.30;73.50;;;;;;5390237;26;20367;-61
2024/04/12 01:08:44;;;;;;;3.38;2.08;;;13.30;73.80;;;;;;5397309;26;20003;-62
2024/04/12 01:11:13;;;;;;;3.00;1.98;;;13.30;74.00;;;;;;5398364;26;20019;-62
2024/04/12 01:13:40;;;;;;;5.47;2.42;;;13.30;74.60;;;;;;5390535;26;20347;-62
2024/04/12 01:16:06;;;;;;;2.05;1.85;;;13.30;74.80;;;;;;5387583;26;20049;-62
2024/04/12 01:18:34;;;;;;;3.95;2.35;;;13.30;75.50;;;;;;5395106;26;21328;-61
2024/04/12 01:21:00;;;;;;;3.80;1.85;;;13.30;76.20;;;;;;5394503;26;20455;-62
2024/04/12 01:23:27;;;;;;;2.30;1.83;;;13.30;76.60;;;;;;5394666;26;20049;-61
2024/04/12 01:25:55;;;;;;;4.68;1.88;;;13.30;76.60;;;;;;5394447;26;20003;-61
2024/04/12 01:28:20;;;;;;;4.40;1.80;;;13.30;76.80;;;;;;5394679;26;20036;-61
2024/04/12 01:30:46;;;;;;;3.83;1.35;;;13.30;77.10;;;;;;5397645;26;20000;-62
2024/04/12 01:33:13;;;;;;;5.15;2.38;;;13.30;77.90;;;;;;5394279;26;20008;-61
2024/04/12 01:35:41;;;;;;;3.17;1.88;;;13.30;77.50;;;;;;5387046;26;20418;-61
2024/04/12 01:38:16;;;;;;;3.67;1.95;;;13.20;77.70;;;;;;5393686;26;20246;-61
2024/04/12 01:40:42;;;;;;;4.57;2.10;;;13.30;78.10;;;;;;5390377;26;20015;-62
2024/04/12 01:43:08;;;;;;;4.30;1.90;;;13.30;78.40;;;;;;5394055;26;20014;-62
2024/04/12 01:45:33;;;;;;;1.92;1.30;;;13.30;78.30;;;;;;5393934;26;20339;-61
2024/04/12 01:47:59;;;;;;;3.08;1.50;;;13.30;78.10;;;;;;5394325;26;20094;-61
2024/04/12 01:50:26;;;;;;;3.78;1.70;;;13.30;78.50;;;;;;5394399;26;20003;-62
2024/04/12 01:52:57;;;;;;;3.00;1.70;;;13.20;79.20;;;;;;5394650;26;19995;-62
2024/04/12 01:55:24;;;;;;;2.95;1.58;;;13.30;79.20;;;;;;5380963;26;20050;-60
2024/04/12 01:57:52;;;;;;;2.55;1.50;;;13.20;79.20;;;;;;5396979;26;19999;-63
2024/04/12 02:00:23;;;;;;;3.47;1.52;;;13.20;79.60;;;;;;5391004;26;20000;-62
2024/04/12 02:02:52;;;;;;;2.67;2.00;;;13.20;79.60;;;;;;5393439;26;19999;-63
2024/04/12 02:05:29;;;;;;;3.25;1.70;;;13.20;79.80;;;;;;5398572;26;20205;-61
2024/04/12 02:08:07;;;;;;;4.43;1.50;;;13.20;80.40;;;;;;5394061;26;19999;-62
2024/04/12 02:10:34;;;;;;;3.97;1.80;;;13.20;80.10;;;;;;5393451;26;20004;-62
2024/04/12 02:12:59;;;;;;;2.88;1.88;;;13.30;80.70;;;;;;5397676;26;20022;-62
2024/04/12 02:15:28;;;;;;;2.15;1.40;;;13.20;80.70;;;;;;5400150;26;20464;-62
2024/04/12 02:17:57;;;;;;;2.50;1.73;;;13.30;81.00;;;;;;5386321;26;20488;-63
2024/04/12 02:20:35;;;;;;;5.97;2.00;;;13.20;80.90;;;;;;5392981;26;20003;-62
2024/04/12 02:23:06;;;;;;;4.72;1.70;;;13.30;81.20;;;;;;5392171;26;20015;-62
2024/04/12 02:25:38;;;;;;;3.63;2.15;;;13.20;81.60;;;;;;5397663;26;20007;-61
2024/04/12 02:28:08;;;;;;;3.90;1.75;;;13.20;82.00;;;;;;5397350;26;20068;-61
2024/04/12 02:30:44;;;;;;;2.67;1.52;;;13.20;82.00;;;;;;5397495;26;20000;-62
2024/04/12 02:33:18;;;;;;;;;;;13.20;82.20;;;;;;5397977;26;19999;-63
2024/04/12 02:35:45;;;;;;;2.83;1.48;;;13.20;85.30;;;;;;5395558;26;19982;-62
2024/04/12 02:38:15;;;;;;;2.00;1.25;;;13.20;83.40;;;;;;5395879;26;20081;-63
2024/04/12 02:40:41;;;;;;;4.07;1.75;;;13.20;82.90;;;;;;5389389;26;20007;-61
2024/04/12 02:43:08;;;;;;;3.13;1.70;;;13.20;83.00;;;;;;5397227;26;20018;-62
2024/04/12 02:45:35;;;;;;;1.88;1.30;;;13.20;83.50;;;;;;5397279;26;20083;-61
2024/04/12 02:48:03;;;;;;;5.80;1.80;;;13.20;83.50;;;;;;5399631;26;20016;-62
2024/04/12 02:50:29;;;;;;;4.18;1.70;;;13.30;83.50;;;;;;5393092;26;20003;-61
2024/04/12 02:52:54;;;;;;;3.50;1.60;;;13.30;83.80;;;;;;5397084;26;20077;-62
2024/04/12 02:55:21;;;;;;;3.28;1.60;;;13.30;83.80;;;;;;5396907;26;19995;-62
2024/04/12 02:57:46;;;;;;;2.28;1.55;;;13.30;84.20;;;;;;5397003;26;20008;-63
2024/04/12 03:00:21;;;;;;;3.88;1.40;;;13.20;84.00;;;;;;5389331;26;20080;-61
2024/04/12 03:02:51;;;;;;;3.50;1.40;;;13.20;84.30;;;;;;5397241;26;20014;-62
2024/04/12 03:05:17;;;;;;;3.92;1.88;;;13.30;84.40;;;;;;5396855;26;20007;-62
2024/04/12 03:07:45;;;;;;;3.13;1.48;;;13.20;84.60;;;;;;5395508;26;19995;-62
2024/04/12 03:10:11;;;;;;;1.95;1.48;;;13.20;84.70;;;;;;5396377;26;20011;-62
2024/04/12 03:12:37;;;;;;;3.95;1.67;;;13.20;85.30;;;;;;5394373;26;20011;-61
2024/04/12 03:15:04;;;;;;;1.65;1.25;;;13.20;85.20;;;;;;5399705;26;20027;-63
2024/04/12 03:17:30;;;;;;;3.80;1.70;;;13.20;85.70;;;;;;5396263;26;19996;-63
2024/04/12 03:19:55;;;;;;;2.25;1.70;;;13.20;85.60;;;;;;5396765;26;20011;-62
2024/04/12 03:22:21;;;;;;;3.72;1.52;;;13.20;85.70;;;;;;5396855;26;19995;-63
2024/04/12 03:24:46;;;;;;;2.95;1.52;;;13.20;86.30;;;;;;5396113;26;20006;-62
2024/04/12 03:27:13;;;;;;;2.90;1.60;;;13.20;86.50;;;;;;5396615;26;19995;-60
2024/04/12 03:29:39;;;;;;;4.80;2.03;;;13.20;86.60;;;;;;5399861;26;20004;-63
2024/04/12 03:32:07;;;;;;;5.53;2.17;;;13.20;86.70;;;;;;5396504;26;20014;-63
2024/04/12 03:34:36;;;;;;;2.83;1.55;;;13.20;87.20;;;;;;5395396;26;20003;-62
2024/04/12 03:37:23;;;;;;;3.92;1.98;;;13.20;87.40;;;;;;5396423;26;20014;-63
2024/04/12 03:39:47;;;;;;;2.88;1.70;;;13.20;87.70;;;;;;5384342;26;20035;-63
2024/04/12 03:42:18;;;;;;;2.13;1.55;;;13.20;88.70;;;;;;5392624;26;20436;-62
2024/04/12 03:44:43;;;;;;;1.92;1.60;;;13.10;88.50;;;;;;5392418;26;20004;-63
2024/04/12 03:47:09;;;;;;;2.50;1.55;;;13.10;88.60;;;;;;5396855;26;20732;-61
2024/04/12 03:49:39;;;;;;;4.80;1.80;;;13.20;89.20;;;;;;5396789;26;20501;-61
2024/04/12 03:52:11;;;;;;;3.25;1.80;;;13.20;89.50;;;;;;5394901;26;20003;-62
2024/04/12 03:54:36;;;;;;;2.63;1.95;;;13.10;89.80;;;;;;5396341;26;20004;-61
2024/04/12 03:57:06;;;;;;;4.65;1.70;;;13.10;90.00;;;;;;5392623;26;20035;-61
2024/04/12 03:59:36;;;;;;;2.17;1.77;;;13.10;90.10;;;;;;5394805;26;20000;-61
2024/04/12 04:02:08;;;;;;;7.00;2.40;;;13.10;90.10;;;;;;5396061;26;20455;-61
2024/04/12 04:04:43;;;;;;;4.78;2.05;;;13.10;90.10;;;;;;5396319;26;20812;-61
2024/04/12 04:07:10;;;;;;;1.97;1.67;;;13.10;90.50;;;;;;5396405;26;20048;-61
2024/04/12 04:09:38;;;;;;;3.22;1.75;;;13.10;90.40;;;;;;5396275;26;20934;-62
2024/04/12 04:12:04;;;;;;;2.58;1.90;;;13.10;90.30;;;;;;5394363;26;20003;-61
2024/04/12 04:14:32;;;;;;;4.28;1.65;;;13.10;90.40;;;;;;5395755;26;20470;-61
2024/04/12 04:17:02;;;;;;;4.00;1.83;;;13.10;90.50;;;;;;5395201;26;20356;-61
2024/04/12 04:19:35;;;;;;;7.35;2.20;;;13.10;90.50;;;;;;5395144;26;20003;-60
2024/04/12 04:22:02;;;;;;;3.80;1.70;;;13.10;91.10;;;;;;5394919;26;20048;-61
2024/04/12 04:24:37;;;;;;;3.60;2.00;;;13.10;90.90;;;;;;5393708;26;20752;-60
2024/04/12 04:27:03;;;;;;;3.97;1.67;;;13.10;90.70;;;;;;5394704;26;20127;-61
2024/04/12 04:29:29;;;;;;;2.25;1.38;;;13.10;90.70;;;;;;5387961;26;20018;-66
2024/04/12 04:31:56;;;;;;;4.38;1.67;;;13.10;90.70;;;;;;5395747;26;20011;-66
2024/04/12 04:34:22;;;;;;;4.13;1.95;;;13.10;90.80;;;;;;5387857;26;20000;-65
2024/04/12 04:36:49;;;;;;;3.80;1.90;;;13.10;91.00;;;;;;5379447;26;20077;-64
2024/04/12 04:39:17;;;;;;;2.13;1.83;;;13.10;91.00;;;;;;5382489;26;20015;-66
2024/04/12 04:41:45;;;;;;;4.22;1.92;;;13.10;91.00;;;;;;5379699;26;20016;-65
2024/04/12 04:44:14;;;;;;;3.50;1.70;;;13.10;90.90;;;;;;5381593;26;20162;-65
2024/04/12 04:46:41;;;;;;;3.03;1.80;;;13.10;91.10;;;;;;5372401;26;19996;-65
2024/04/12 04:49:07;;;;;;;4.75;2.03;;;13.10;91.30;;;;;;5377431;26;20075;-68
2024/04/12 04:51:33;;;;;;;2.25;1.70;;;13.10;91.20;;;;;;5382236;26;20012;-65
2024/04/12 04:53:59;;;;;;;4.25;2.20;;;13.20;91.00;;;;;;5389619;26;20011;-67
2024/04/12 04:56:24;;;;;;;3.83;1.80;;;13.20;91.00;;;;;;5380420;26;20586;-67
2024/04/12 04:58:53;;;;;;;2.72;1.80;;;13.20;91.00;;;;;;5386886;26;20050;-66
2024/04/12 05:01:19;;;;;;;3.17;1.77;;;13.20;91.00;;;;;;5385016;26;20630;-66
2024/04/12 05:03:49;;;;;;;4.15;1.90;;;13.20;91.00;;;;;;5378844;26;20016;-67
2024/04/12 05:06:24;;;;;;;4.00;2.03;;;13.20;91.00;;;;;;5382933;26;19999;-66
2024/04/12 05:08:54;;;;;;;4.40;2.10;;;13.20;90.80;;;;;;5383944;26;20000;-67
2024/04/12 05:11:20;;;;;;;2.97;2.13;;;13.20;91.00;;;;;;5385845;26;19999;-67
2024/04/12 05:13:49;;;;;;;7.40;2.10;;;13.30;90.70;;;;;;5391374;26;20010;-61
2024/04/12 05:16:19;;;;;;;6.63;2.45;;;13.20;90.80;;;;;;5383595;26;19996;-64
2024/04/12 05:18:47;;;;;;;4.57;2.67;;;13.30;90.70;;;;;;5378703;26;20014;-60
2024/04/12 05:21:14;;;;;;;4.88;2.40;;;13.30;90.80;;;;;;5378188;26;19996;-61
2024/04/12 05:23:39;;;;;;;5.18;2.15;;;13.30;90.70;;;;;;5382041;26;20000;-59
2024/04/12 05:26:06;;;;;;;3.15;1.98;;;13.40;90.80;;;;;;5387897;26;20011;-60
2024/04/12 05:28:32;;;;;;;6.00;1.88;;;13.40;90.70;;;;;;5379664;26;20440;-59
2024/04/12 05:30:59;;;;;;;3.97;2.22;;;13.40;90.80;;;;;;5383252;26;20467;-59
2024/04/12 05:33:27;;;;;;;5.80;2.20;;;13.40;90.70;;;;;;5382104;26;20010;-59
2024/04/12 05:35:52;;;;;;;3.13;2.20;;;13.40;90.70;;;;;;5385295;26;20521;-59
2024/04/12 05:38:21;;;;;;;6.43;2.08;;;13.50;90.80;;;;;;5378044;26;20000;-59
2024/04/12 05:40:56;;;;;;;6.00;2.78;;;13.50;90.90;;;;;;5369762;26;20013;-59
2024/04/12 05:43:22;;;;;;;4.10;2.05;;;13.50;90.60;;;;;;5377364;26;20051;-60
2024/04/12 05:45:49;;;;;;;2.80;2.10;;;13.50;90.60;;;;;;5384824;26;20040;-59
2024/04/12 05:48:21;;;;;;;7.25;2.72;;;13.50;90.70;;;;;;5381819;26;20401;-60
2024/04/12 05:50:50;;;;;;;4.50;2.20;;;13.50;90.60;;;;;;5377239;26;20076;-60
2024/04/12 05:53:18;;;;;;;6.28;2.83;;;13.60;90.60;;;;;;5379597;26;20368;-60
2024/04/12 05:55:44;;;;;;;4.72;2.63;;;13.60;90.50;;;;;;5380761;26;20003;-61
2024/04/12 05:58:14;;;;;;;6.03;2.50;;;13.60;90.70;;;;;;5378663;26;20003;-60
2024/04/12 06:00:41;;;;;;;3.08;2.20;;;13.70;90.50;;;;;;5383045;26;20012;-60
2024/04/12 06:03:08;;;;;;;5.05;2.20;;;13.70;90.50;;;;;;5386526;26;20007;-60
2024/04/12 06:05:33;;;;;;;4.65;2.60;;;13.70;90.30;;;;;;5381845;26;20764;-59
2024/04/12 06:08:00;;;;;;;5.43;2.63;;;13.80;90.20;;;;;;5384619;26;20006;-60
2024/04/12 06:10:29;;;;;;;4.65;2.63;;;13.80;90.10;;;;;;5383169;26;20087;-59
2024/04/12 06:12:55;;;;;;;6.47;2.85;;;13.90;90.10;;;;;;5384089;26;20011;-60
2024/04/12 06:15:21;;;;;;;5.20;2.95;;;13.90;89.80;;;;;;5376761;26;20064;-60
2024/04/12 06:17:46;;;;;;;5.75;2.40;;;13.90;89.60;;;;;;5377071;26;20045;-60
2024/04/12 06:20:12;;;;;;;5.60;2.80;;;14.00;89.70;;;;;;5381999;26;20538;-59
2024/04/12 06:22:37;;;;;;;5.70;3.08;;;14.00;89.60;;;;;;5389793;26;19999;-59
2024/04/12 06:25:03;;;;;;;3.50;2.13;;;14.10;89.20;;;;;;5382925;26;20682;-59
2024/04/12 06:27:33;;;;;;;5.75;2.78;;;14.10;88.90;;;;;;5384084;26;20015;-59
2024/04/12 06:30:05;;;;;;;2.95;2.13;;;14.20;88.90;;;;;;5373945;26;20354;-59
2024/04/12 06:32:31;;;;;;;9.50;3.05;;;14.30;88.60;;;;;;5376427;26;20014;-59
2024/04/12 06:34:57;;;;;;;4.63;3.00;;;14.30;88.10;;;;;;5385930;26;19999;-60
2024/04/12 06:37:22;;;;;;;4.25;2.50;;;14.40;87.80;;;;;;5380761;26;20476;-59
2024/04/12 06:39:48;;;;;;;5.10;2.53;;;14.50;87.50;;;;;;5385909;26;20022;-60
2024/04/12 06:42:15;;;;;;;5.00;2.97;;;14.50;86.90;;;;;;5390684;26;20409;-60
2024/04/12 06:44:48;;;;;;;5.13;3.20;;;14.70;86.70;;;;;;5390869;26;20363;-60
2024/04/12 06:47:18;;;;;;;6.70;2.75;;;14.70;86.20;;;;;;5383349;26;20022;-60
2024/04/12 06:49:44;;;;;;;3.80;2.13;;;14.90;85.80;;;;;;5386678;26;20018;-59
2024/04/12 06:52:11;;;;;;;4.40;2.83;;;14.90;85.20;;;;;;5388116;26;20018;-60
2024/04/12 06:54:41;;;;;;;6.57;3.33;;;15.10;85.20;;;;;;5387942;26;20409;-60
2024/04/12 06:57:21;;;;;;;5.72;3.55;;;15.10;84.90;;;;;;5387061;26;19999;-59
2024/04/12 06:59:52;;;;;;;4.95;2.78;;;15.10;84.60;;;;;;5393362;26;20039;-60
2024/04/12 07:02:23;;;;;;;5.20;3.50;;;15.20;84.30;;;;;;5379263;26;20004;-60
2024/04/12 07:04:50;;;;;;;6.55;3.47;;;15.20;84.20;;;;;;5381937;26;20055;-60
2024/04/12 07:07:22;;;;;;;7.15;3.22;;;15.20;83.90;;;;;;5387823;26;20007;-59
2024/04/12 07:09:58;;;;;;;6.00;3.47;;;15.10;83.80;;;;;;5396979;26;20003;-59
2024/04/12 07:12:27;;;;;;;5.65;3.10;;;15.10;83.80;;;;;;5397129;26;20007;-59
2024/04/12 07:14:54;;;;;;;3.80;2.72;;;15.10;83.70;;;;;;5397048;26;19995;-59
2024/04/12 07:17:20;;;;;;;5.07;3.60;;;15.10;83.70;;;;;;5395938;26;20462;-59
2024/04/12 07:19:50;;;;;;;4.57;3.30;;;15.10;83.60;;;;;;5394737;26;20340;-59
2024/04/12 07:22:20;;;;;;;6.60;3.42;;;15.10;83.50;;;;;;5396440;26;20072;-59
2024/04/12 07:24:50;;;;;;;6.47;3.55;;;15.00;83.20;;;;;;5397081;26;19999;-59
2024/04/12 07:27:17;;;;;;;6.53;3.25;;;15.00;83.40;;;;;;5396719;26;20006;-59
2024/04/12 07:29:46;;;;;;;6.65;3.50;;;15.00;83.50;;;;;;5395980;26;19999;-58
2024/04/12 07:32:13;;;;;;;6.38;2.63;;;14.90;83.40;;;;;;5398649;26;19999;-59
2024/04/12 07:34:48;;;;;;;6.30;3.30;;;15.00;83.40;;;;;;5392644;26;20000;-59
2024/04/12 07:37:26;;;;;;;6.80;2.95;;;15.10;83.40;;;;;;5392268;26;20402;-59
2024/04/12 07:40:15;;;;;;;4.05;3.03;;;15.20;83.10;;;;;;5379537;26;20352;-59
2024/04/12 07:42:38;;;;;;;5.00;3.53;;;15.20;82.70;;;;;;5396112;26;20007;-59
2024/04/12 07:45:06;;;;;;;5.82;3.58;;;15.30;82.60;;;;;;5395924;26;20003;-59
2024/04/12 07:47:35;;;;;;;9.77;3.42;;;15.30;82.40;;;;;;5396417;26;20000;-59
2024/04/12 07:50:08;;;;;;;8.60;4.38;;;15.30;82.30;;;;;;5396193;26;20484;-59
2024/04/12 07:52:34;;;;;;;5.38;3.30;;;15.40;82.20;;;;;;5395836;26;20459;-59
2024/04/12 07:55:01;;;;;;;8.35;3.70;;;15.40;82.10;;;;;;5394212;26;19995;-59
2024/04/12 07:57:29;;;;;;;10.43;3.95;;;15.40;81.90;;;;;;5388299;26;19999;-59
2024/04/12 07:59:55;;;;;;;6.97;3.80;;;15.40;81.80;;;;;;5396006;26;20335;-59
2024/04/12 08:02:21;;;;;;;8.48;4.35;;;15.50;81.60;;;;;;5398666;26;20004;-59
2024/04/12 08:04:46;;;;;;;8.15;4.78;;;15.50;81.40;;;;;;5395158;26;20010;-60
2024/04/12 08:07:17;;;;;;;6.78;3.80;;;15.60;81.10;;;;;;5395705;26;20417;-60
2024/04/12 08:09:52;;;;;;;9.98;3.50;;;15.70;81.10;;;;;;5395248;26;20022;-59
2024/04/12 08:12:23;;;;;;;7.40;4.18;;;15.80;80.90;;;;;;5391246;26;20068;-59
2024/04/12 08:14:52;;;;;;;5.40;3.83;;;15.90;80.50;;;;;;5395344;26;20000;-59
2024/04/12 08:17:23;;;;;;;4.10;3.40;;;16.10;80.20;;;;;;5395781;26;20448;-59
2024/04/12 08:19:55;;;;;;;5.55;3.88;;;16.30;78.80;;;;;;5395060;26;20003;-59
2024/04/12 08:22:27;;;;;;;9.35;4.38;;;16.50;78.80;;;;;;5395784;26;20010;-59
2024/04/12 08:24:54;;;;;;;8.77;4.10;;;16.70;78.10;;;;;;5399011;26;20007;-59
2024/04/12 08:27:24;;;;;;;8.85;4.03;;;16.90;77.50;;;;;;5395934;26;20301;-59
2024/04/12 08:29:55;;;;;;;5.03;3.58;;;17.10;76.70;;;;;;5394979;26;20000;-59
2024/04/12 08:32:31;;;;;;;5.57;3.58;;;17.30;76.30;;;;;;5395183;26;20003;-59
2024/04/12 08:35:06;;;;;;;6.07;3.63;;;17.50;75.50;;;;;;5395180;26;20409;-60
2024/04/12 08:37:36;;;;;;;5.65;4.15;;;17.60;75.20;;;;;;5391880;26;20031;-59
2024/04/12 08:40:08;;;;;;;7.22;3.90;;;17.50;74.40;;;;;;5385764;26;19999;-60
2024/04/12 08:42:34;;;;;;;8.00;3.60;;;17.40;73.70;;;;;;5389634;26;20011;-59
2024/04/12 08:45:12;;;;;;;8.05;4.10;;;17.40;73.90;;;;;;5398487;26;19999;-59
2024/04/12 08:47:51;;;;;;;5.53;2.83;;;17.50;73.70;;;;;;5394142;26;20391;-59
2024/04/12 08:50:23;;;;;;;5.88;4.32;;;17.40;73.20;;;;;;5395370;26;20390;-59
2024/04/12 08:52:52;;;;;;;8.38;4.22;;;17.40;72.60;;;;;;5396240;26;20452;-59
2024/04/12 08:55:23;;;;;;;6.97;4.15;;;17.50;72.40;;;;;;5393894;26;20333;-59
2024/04/12 08:57:56;;;;;;;8.10;4.57;;;17.60;71.90;;;;;;5392275;26;20003;-59
2024/04/12 09:00:28;;;;;;;10.55;5.25;;;17.70;71.60;;;;;;5394556;26;19999;-60
2024/04/12 09:02:58;;;;;;;7.25;4.35;;;17.80;70.10;;;;;;5394023;26;20452;-59
2024/04/12 09:05:28;;;;;;;7.57;4.70;;;17.80;70.30;;;;;;5394944;26;20321;-59
2024/04/12 09:07:58;;;;;;;7.00;4.70;;;17.80;69.40;;;;;;5386896;26;20000;-60
2024/04/12 09:10:34;;;;;;;7.15;4.65;;;17.80;69.30;;;;;;5393830;26;20028;-59
2024/04/12 09:13:01;;;;;;;10.57;6.30;;;17.90;69.00;;;;;;5393068;26;20072;-59
2024/04/12 09:15:32;;;;;;;7.97;4.55;;;17.80;67.90;;;;;;5394772;26;20045;-59
2024/04/12 09:18:01;;;;;;;10.45;5.80;;;17.80;68.40;;;;;;5394112;26;20010;-59
2024/04/12 09:20:31;;;;;;;7.32;5.07;;;17.80;66.90;;;;;;5394018;26;20372;-59
2024/04/12 09:23:13;;;;;;;8.35;5.75;;;17.90;67.70;;;;;;5394349;26;20465;-59
2024/04/12 09:25:44;;;;;;;7.63;4.47;;;17.90;67.20;;;;;;5396981;26;19999;-59
2024/04/12 09:28:13;;;;;;;9.07;5.05;;;18.10;67.40;;;;;;5394203;26;20347;-59
2024/04/12 09:33:27;;;;;;;5.23;4.40;;;18.40;66.80;;;;;;5389906;26;20061;-59
2024/04/12 09:36:06;;;;;;;8.23;5.57;;;18.50;65.90;;;;;;5394297;26;19999;-59
2024/04/12 09:38:39;;;;;;;7.88;5.55;;;18.50;65.00;;;;;;5389758;26;19999;-59
2024/04/12 09:43:54;;;;;;;9.63;5.22;;;18.60;65.00;;;;;;5389534;26;20480;-59
2024/04/12 09:46:36;;;;;;;6.65;5.25;;;18.70;64.90;;;;;;5397673;26;19999;-60
2024/04/12 10:38:44;;;;;;;7.85;4.93;;;18.90;60.80;;;;;;5382556;26;20013;-60
2024/04/12 10:41:10;;;;;;;10.60;5.15;;;18.90;61.00;;;;;;5376521;26;20007;-61
2024/04/12 10:43:37;;;;;;;6.07;4.82;;;18.90;60.90;;;;;;5382981;26;20068;-59
2024/04/12 10:46:10;;;;;;;12.68;6.57;;;18.80;60.80;;;;;;5386989;26;19995;-59
2024/04/12 10:48:37;;;;;;;8.23;5.75;;;18.90;60.60;;;;;;5393823;26;19996;-60
2024/04/12 10:51:04;;;;;;;14.88;6.53;;;19.00;60.50;;;;;;5380560;26;20020;-60
2024/04/12 10:53:31;;;;;;;7.30;4.63;;;18.90;60.10;;;;;;5388460;26;20448;-59
2024/04/12 10:56:02;;;;;;;10.07;6.65;;;18.90;60.00;;;;;;5391286;26;20372;-58
2024/04/12 10:58:33;;;;;;;8.82;5.72;;;18.90;59.70;;;;;;5391129;26;20003;-59
2024/04/12 11:01:04;;;;;;;8.27;5.05;;;19.00;59.80;;;;;;5381674;26;20015;-59
2024/04/12 11:03:30;;;;;;;6.90;4.63;;;18.90;59.80;;;;;;5381587;26;20008;-60
2024/04/12 11:06:10;;;;;;;9.35;6.68;;;18.80;59.80;;;;;;5386873;26;20007;-59
2024/04/12 11:08:36;;;;;;;8.75;5.13;;;18.80;60.00;;;;;;5388950;26;20014;-60
2024/04/12 11:11:19;;;;;;;9.55;5.75;;;18.70;60.00;;;;;;5382527;26;20028;-60
2024/04/12 11:13:48;;;;;;;9.35;5.75;;;18.70;60.00;;;;;;5386228;26;20012;-60
2024/04/12 11:32:42;;;;;;;7.88;5.00;;;18.80;59.70;;;;;;5380681;26;20383;-61
2024/04/12 11:35:11;;;;;;;9.55;5.00;;;18.60;59.70;;;;;;5397313;26;19999;-62
2024/04/12 11:37:40;;;;;;;7.53;5.22;;;18.60;59.80;;;;;;5387090;26;20000;-62
2024/04/12 11:40:16;;;;;;;7.90;5.07;;;18.70;59.90;;;;;;5379543;26;20373;-61
2024/04/12 11:42:45;;;;;;;8.48;4.70;;;18.90;59.60;;;;;;5385271;26;20340;-61
2024/04/12 11:45:14;;;;;;;8.32;5.32;;;19.20;59.20;;;;;;5387132;26;20080;-61
2024/04/12 11:47:40;;;;;;;7.80;4.95;;;19.40;58.70;;;;;;5385830;26;20003;-61
2024/04/12 11:50:10;;;;;;;6.50;4.90;;;19.50;58.30;;;;;;5385615;26;20385;-61
2024/04/12 11:52:38;;;;;;;9.02;6.10;;;19.60;57.90;;;;;;5387742;26;20014;-61
2024/04/12 11:55:06;;;;;;;7.70;5.32;;;19.70;56.10;;;;;;5393587;26;20000;-61
2024/04/12 11:57:36;;;;;;;7.80;5.28;;;19.90;56.70;;;;;;5385607;26;20018;-61
2024/04/12 12:00:11;;;;;;;8.30;4.68;;;20.10;56.70;;;;;;5381329;26;19999;-62
2024/04/12 12:02:42;;;;;;;6.47;4.32;;;20.20;56.20;;;;;;5390395;26;20015;-62
2024/04/12 12:05:08;;;;;;;6.30;4.55;;;20.30;56.20;;;;;;5389873;26;20957;-62
2024/04/12 12:07:34;;;;;;;7.18;4.50;;;20.20;56.20;;;;;;5389545;26;20572;-61
2024/04/12 12:10:03;;;;;;;5.55;3.88;;;20.30;55.80;;;;;;5383714;26;20011;-64
2024/04/12 12:12:30;;;;;;;4.70;3.72;;;20.40;55.60;;;;;;5385493;26;20012;-61
2024/04/12 12:14:56;;;;;;;6.18;4.30;;;20.60;55.30;;;;;;5383153;26;20039;-61
2024/04/12 12:17:22;;;;;;;5.22;4.28;;;20.70;54.90;;;;;;5389477;26;20022;-61
2024/04/12 12:19:50;;;;;;;8.82;5.43;;;20.80;54.70;;;;;;5384550;26;20007;-62
2024/04/12 12:22:18;;;;;;;6.10;4.53;;;20.80;54.30;;;;;;5393994;26;20171;-62
2024/04/12 12:24:44;;;;;;;7.68;4.07;;;20.80;54.00;;;;;;5386278;26;19999;-62
2024/04/12 12:27:09;;;;;;;6.22;4.45;;;20.90;53.90;;;;;;5381980;26;20032;-62
2024/04/12 12:29:36;;;;;;;6.13;4.50;;;21.00;53.40;;;;;;5389095;26;20400;-63
2024/04/12 12:32:02;;;;;;;6.07;4.13;;;21.00;53.00;;;;;;5383082;26;20007;-62
2024/04/12 12:34:27;;;;;;;8.52;5.32;;;21.00;52.70;;;;;;5384852;26;20065;-61
2024/04/12 12:36:59;;;;;;;7.43;4.25;;;20.90;51.50;;;;;;5386781;26;20011;-62
2024/04/12 12:39:30;;;;;;;7.43;4.78;;;20.70;52.50;;;;;;5373877;26;19999;-62
2024/04/12 12:41:56;;;;;;;5.22;4.05;;;20.80;52.40;;;;;;5382718;26;20076;-61
2024/04/12 12:44:22;;;;;;;6.20;3.00;;;20.80;51.90;;;;;;5387474;26;20464;-62
2024/04/12 12:46:48;;;;;;;7.20;3.65;;;20.80;51.80;;;;;;5375339;26;19995;-63
2024/04/12 12:49:19;;;;;;;5.53;3.30;;;20.80;51.70;;;;;;5388316;26;20004;-62
2024/04/12 12:51:47;;;;;;;4.90;3.42;;;20.90;51.60;;;;;;5371972;26;20008;-63
2024/04/12 12:54:13;;;;;;;6.65;3.88;;;20.80;51.60;;;;;;5390298;26;20004;-63
2024/04/12 12:56:40;;;;;;;5.95;3.08;;;20.70;51.30;;;;;;5380423;26;20355;-63
2024/04/12 12:59:05;;;;;;;3.90;3.15;;;20.60;51.10;;;;;;5382019;26;19999;-62
2024/04/12 13:01:41;;;;;;;4.88;3.20;;;20.60;51.30;;;;;;5387890;26;20040;-62
2024/04/12 13:04:07;;;;;;;;;;;20.60;51.20;;;;;;5386064;26;20464;-63
2024/04/12 13:06:34;;;;;;;;;;;20.50;50.20;;;;;;5387152;26;20270;-63
2024/04/12 13:08:59;;;;;;;;;;;20.50;50.00;;;;;;5396901;26;19925;-63
2024/04/12 13:11:25;;;;;;;3.97;3.03;;;20.50;50.20;;;;;;5381517;26;20273;-62
2024/04/12 13:13:51;;;;;;;4.25;3.38;;;20.50;50.50;;;;;;5374889;26;19996;-63
2024/04/12 13:16:18;;;;;;;8.40;3.38;;;20.40;50.40;;;;;;5387125;26;20007;-63
2024/04/12 13:18:51;;;;;;;6.38;3.15;;;20.40;50.30;;;;;;5385304;26;20006;-63
2024/04/12 13:21:18;;;;;;;3.58;3.00;;;20.40;50.40;;;;;;5386294;26;20004;-63
2024/04/12 13:23:46;;;;;;;6.75;3.30;;;20.40;50.10;;;;;;5389276;26;20503;-63
2024/04/12 13:26:22;;;;;;;5.18;3.08;;;20.40;50.00;;;;;;5389776;26;20039;-62
2024/04/12 13:28:52;;;;;;;5.18;3.22;;;20.50;50.00;;;;;;5390716;26;20467;-63
2024/04/12 13:31:32;;;;;;;4.68;3.38;;;20.60;49.90;;;;;;5384802;26;20025;-62
2024/04/12 13:34:00;;;;;;;5.47;3.42;;;20.80;49.90;;;;;;5384451;26;20018;-62
2024/04/12 13:36:26;;;;;;;5.38;3.75;;;20.90;49.50;;;;;;5380877;26;20032;-62
2024/04/12 13:38:53;;;;;;;4.82;3.00;;;21.00;49.30;;;;;;5383205;26;19995;-60
2024/04/12 13:41:20;;;;;;;4.95;3.42;;;21.10;49.10;;;;;;5378174;26;20069;-62
2024/04/12 13:43:46;;;;;;;6.22;3.78;;;21.00;48.70;;;;;;5384095;26;20407;-62
2024/04/12 13:51:49;;;;;;;5.53;3.80;;;21.10;48.10;;;;;;5376142;26;20023;-62
2024/04/12 13:54:22;;;;;;;4.70;3.30;;;21.10;48.20;;;;;;5385872;26;20467;-61
2024/04/12 13:56:49;;;;;;;4.32;2.60;;;21.10;48.20;;;;;;5387354;26;20085;-62
2024/04/12 13:59:14;;;;;;;4.80;3.15;;;21.10;48.00;;;;;;5386946;26;20011;-62
2024/04/12 14:01:40;;;;;;;6.57;2.65;;;21.20;48.00;;;;;;5391769;26;20015;-62
2024/04/12 14:04:09;;;;;;;4.70;3.53;;;21.10;48.00;;;;;;5386531;26;20019;-62
2024/04/12 14:06:38;;;;;;;3.95;2.80;;;21.20;48.10;;;;;;5395530;26;20014;-62
2024/04/12 14:09:09;;;;;;;3.83;2.78;;;21.20;48.10;;;;;;5386184;26;20077;-63
2024/04/12 14:11:35;;;;;;;3.35;2.70;;;21.20;48.10;;;;;;5384559;26;19999;-62
2024/04/12 14:14:04;;;;;;;4.20;2.92;;;21.20;48.10;;;;;;5387434;26;20012;-61